sensor_id;sensor_type;location;lat;lon;timestamp;pressure;altitude;pressure_sealevel;temperature;humidity
63903;BME280;50072;50.678;13.938;2023-02-19T00:02:14;99537.81;;;9.46;80.08
63903;BME280;50072;50.678;13.938;2023-02-19T00:04:41;99539.56;;;9.46;79.81
63903;BME280;50072;50.678;13.938;2023-02-19T00:07:13;99536.88;;;9.47;79.59
63903;BME280;50072;50.678;13.938;2023-02-19T00:09:50;99533.28;;;9.48;79.50
63903;BME280;50072;50.678;13.938;2023-02-19T00:12:26;99525.38;;;9.44;80.11
63903;BME280;50072;50.678;13.938;2023-02-19T00:14:57;99527.19;;;9.42;80.71
63903;BME280;50072;50.678;13.938;2023-02-19T00:17:34;99515.66;;;9.41;80.45
63903;BME280;50072;50.678;13.938;2023-02-19T00:20:04;99517.47;;;9.39;80.48
63903;BME280;50072;50.678;13.938;2023-02-19T00:23:04;99527.28;;;9.39;80.05
63903;BME280;50072;50.678;13.938;2023-02-19T00:25:36;99522.81;;;9.39;80.85
63903;BME280;50072;50.678;13.938;2023-02-19T00:28:04;99520.16;;;9.38;80.30
63903;BME280;50072;50.678;13.938;2023-02-19T00:30:36;99520.19;;;9.36;80.20
63903;BME280;50072;50.678;13.938;2023-02-19T00:33:04;99517.47;;;9.39;79.80
63903;BME280;50072;50.678;13.938;2023-02-19T00:35:41;99509.47;;;9.38;80.02
63903;BME280;50072;50.678;13.938;2023-02-19T00:38:26;99514.84;;;9.36;80.16
63903;BME280;50072;50.678;13.938;2023-02-19T00:44:06;99508.53;;;9.40;79.73
63903;BME280;50072;50.678;13.938;2023-02-19T00:46:36;99502.59;;;9.27;83.94
63903;BME280;50072;50.678;13.938;2023-02-19T00:49:05;99502.81;;;9.18;85.80
63903;BME280;50072;50.678;13.938;2023-02-19T00:54:26;99504.00;;;9.03;86.05
63903;BME280;50072;50.678;13.938;2023-02-19T00:57:04;99506.75;;;9.00;86.19
63903;BME280;50072;50.678;13.938;2023-02-19T00:59:34;99494.38;;;8.96;85.71
63903;BME280;50072;50.678;13.938;2023-02-19T01:02:34;99496.16;;;8.97;87.14
63903;BME280;50072;50.678;13.938;2023-02-19T01:05:08;99496.22;;;8.94;86.53
63903;BME280;50072;50.678;13.938;2023-02-19T01:07:36;99491.69;;;8.97;85.65
63903;BME280;50072;50.678;13.938;2023-02-19T01:10:04;99481.03;;;8.96;86.29
63903;BME280;50072;50.678;13.938;2023-02-19T01:12:34;99477.53;;;8.94;87.23
63903;BME280;50072;50.678;13.938;2023-02-19T01:15:26;99466.84;;;8.94;88.42
63903;BME280;50072;50.678;13.938;2023-02-19T01:18:04;99473.16;;;8.90;87.12
63903;BME280;50072;50.678;13.938;2023-02-19T01:20:36;99457.91;;;8.95;87.24
63903;BME280;50072;50.678;13.938;2023-02-19T01:23:04;99458.88;;;8.92;88.03
63903;BME280;50072;50.678;13.938;2023-02-19T01:25:38;99453.47;;;8.95;88.19
63903;BME280;50072;50.678;13.938;2023-02-19T01:28:04;99443.75;;;8.93;86.60
63903;BME280;50072;50.678;13.938;2023-02-19T01:30:46;99431.94;;;9.03;87.44
63903;BME280;50072;50.678;13.938;2023-02-19T01:33:25;99438.22;;;9.02;87.24
63903;BME280;50072;50.678;13.938;2023-02-19T01:35:59;99432.81;;;9.05;86.83
63903;BME280;50072;50.678;13.938;2023-02-19T01:38:26;99429.91;;;9.14;88.13
63903;BME280;50072;50.678;13.938;2023-02-19T01:41:05;99424.59;;;9.13;88.00
63903;BME280;50072;50.678;13.938;2023-02-19T01:43:33;99416.78;;;9.05;88.50
63903;BME280;50072;50.678;13.938;2023-02-19T01:46:03;99414.34;;;8.94;88.65
63903;BME280;50072;50.678;13.938;2023-02-19T01:48:38;99416.97;;;8.96;88.44
63903;BME280;50072;50.678;13.938;2023-02-19T01:51:34;99419.75;;;8.91;88.18
63903;BME280;50072;50.678;13.938;2023-02-19T01:54:08;99418.88;;;8.91;88.92
63903;BME280;50072;50.678;13.938;2023-02-19T01:56:45;99398.22;;;8.99;88.96
63903;BME280;50072;50.678;13.938;2023-02-19T01:59:15;99401.66;;;9.04;88.94
63903;BME280;50072;50.678;13.938;2023-02-19T02:01:55;99406.13;;;9.04;89.21
63903;BME280;50072;50.678;13.938;2023-02-19T02:04:34;99390.34;;;8.93;89.91
63903;BME280;50072;50.678;13.938;2023-02-19T02:07:05;99395.78;;;8.90;90.38
63903;BME280;50072;50.678;13.938;2023-02-19T02:09:57;99390.50;;;8.87;91.25
63903;BME280;50072;50.678;13.938;2023-02-19T02:12:43;99380.69;;;8.87;91.39
63903;BME280;50072;50.678;13.938;2023-02-19T02:15:28;99378.25;;;8.76;92.57
63903;BME280;50072;50.678;13.938;2023-02-19T02:24:50;99352.78;;;8.63;96.64
63903;BME280;50072;50.678;13.938;2023-02-19T02:27:50;99344.16;;;8.50;97.27
63903;BME280;50072;50.678;13.938;2023-02-19T02:30:41;99350.53;;;8.44;98.02
63903;BME280;50072;50.678;13.938;2023-02-19T02:36:44;99344.50;;;8.33;100.00
63903;BME280;50072;50.678;13.938;2023-02-19T02:39:30;99346.22;;;8.36;99.78
63903;BME280;50072;50.678;13.938;2023-02-19T02:41:58;99339.38;;;8.24;100.00
63903;BME280;50072;50.678;13.938;2023-02-19T02:45:10;99326.16;;;8.18;100.00
63903;BME280;50072;50.678;13.938;2023-02-19T02:48:00;99323.59;;;8.13;100.00
63903;BME280;50072;50.678;13.938;2023-02-19T02:50:56;99320.97;;;8.11;100.00
63903;BME280;50072;50.678;13.938;2023-02-19T02:53:40;99322.66;;;8.16;100.00
63903;BME280;50072;50.678;13.938;2023-02-19T02:56:27;99317.47;;;8.08;100.00
63903;BME280;50072;50.678;13.938;2023-02-19T02:59:05;99312.38;;;7.97;100.00
63903;BME280;50072;50.678;13.938;2023-02-19T03:02:05;99318.47;;;8.02;100.00
63903;BME280;50072;50.678;13.938;2023-02-19T03:08:30;99295.44;;;8.00;100.00
63903;BME280;50072;50.678;13.938;2023-02-19T03:11:34;99292.91;;;7.92;100.00
63903;BME280;50072;50.678;13.938;2023-02-19T03:14:36;99294.63;;;7.96;100.00
63903;BME280;50072;50.678;13.938;2023-02-19T03:17:48;99287.66;;;7.89;100.00
63903;BME280;50072;50.678;13.938;2023-02-19T03:20:38;99282.50;;;7.81;100.00
63903;BME280;50072;50.678;13.938;2023-02-19T03:23:07;99289.53;;;7.84;100.00
63903;BME280;50072;50.678;13.938;2023-02-19T03:25:36;99296.69;;;7.82;100.00
63903;BME280;50072;50.678;13.938;2023-02-19T03:28:29;99288.59;;;7.86;100.00
63903;BME280;50072;50.678;13.938;2023-02-19T03:31:19;99277.06;;;7.86;100.00
63903;BME280;50072;50.678;13.938;2023-02-19T03:33:56;99288.53;;;7.89;100.00
63903;BME280;50072;50.678;13.938;2023-02-19T03:36:42;99277.00;;;7.89;100.00
63903;BME280;50072;50.678;13.938;2023-02-19T03:39:27;99272.69;;;7.83;100.00
63903;BME280;50072;50.678;13.938;2023-02-19T03:42:12;99270.03;;;7.82;100.00
63903;BME280;50072;50.678;13.938;2023-02-19T03:45:00;99268.28;;;7.81;100.00
63903;BME280;50072;50.678;13.938;2023-02-19T03:50:49;99272.00;;;7.72;100.00
63903;BME280;50072;50.678;13.938;2023-02-19T03:53:50;99265.88;;;7.68;100.00
63903;BME280;50072;50.678;13.938;2023-02-19T03:56:37;99256.97;;;7.69;100.00
63903;BME280;50072;50.678;13.938;2023-02-19T04:02:01;99248.22;;;7.64;100.00
63903;BME280;50072;50.678;13.938;2023-02-19T04:04:38;99260.69;;;7.60;100.00
63903;BME280;50072;50.678;13.938;2023-02-19T04:07:07;99248.28;;;7.59;100.00
63903;BME280;50072;50.678;13.938;2023-02-19T04:09:37;99239.41;;;7.59;100.00
63903;BME280;50072;50.678;13.938;2023-02-19T04:12:26;99239.56;;;7.53;100.00
63903;BME280;50072;50.678;13.938;2023-02-19T04:15:14;99231.38;;;7.62;100.00
63903;BME280;50072;50.678;13.938;2023-02-19T04:17:55;99231.50;;;7.56;100.00
63903;BME280;50072;50.678;13.938;2023-02-19T04:20:29;99222.53;;;7.60;100.00
63903;BME280;50072;50.678;13.938;2023-02-19T04:22:58;99216.31;;;7.61;100.00
63903;BME280;50072;50.678;13.938;2023-02-19T04:25:28;99211.03;;;7.58;100.00
63903;BME280;50072;50.678;13.938;2023-02-19T04:27:57;99218.25;;;7.53;100.00
63903;BME280;50072;50.678;13.938;2023-02-19T04:30:26;99224.31;;;7.61;100.00
63903;BME280;50072;50.678;13.938;2023-02-19T04:33:04;99222.59;;;7.57;100.00
63903;BME280;50072;50.678;13.938;2023-02-19T04:35:34;99226.03;;;7.62;100.00
63903;BME280;50072;50.678;13.938;2023-02-19T04:38:04;99210.25;;;7.53;100.00
63903;BME280;50072;50.678;13.938;2023-02-19T04:40:31;99213.66;;;7.61;100.00
63903;BME280;50072;50.678;13.938;2023-02-19T04:42:58;99202.94;;;7.64;100.00
63903;BME280;50072;50.678;13.938;2023-02-19T04:45:36;99207.56;;;7.54;100.00
63903;BME280;50072;50.678;13.938;2023-02-19T04:48:04;99194.19;;;7.57;100.00
63903;BME280;50072;50.678;13.938;2023-02-19T04:50:37;99200.38;;;7.58;100.00
63903;BME280;50072;50.678;13.938;2023-02-19T04:53:05;99198.84;;;7.46;100.00
63903;BME280;50072;50.678;13.938;2023-02-19T04:58:34;99197.88;;;7.50;100.00
63903;BME280;50072;50.678;13.938;2023-02-19T05:01:20;99186.16;;;7.59;100.00
63903;BME280;50072;50.678;13.938;2023-02-19T05:03:56;99196.16;;;7.48;100.00
63903;BME280;50072;50.678;13.938;2023-02-19T05:06:34;99188.19;;;7.46;100.00
63903;BME280;50072;50.678;13.938;2023-02-19T05:11:56;99188.81;;;7.59;100.00
63903;BME280;50072;50.678;13.938;2023-02-19T05:14:34;99187.19;;;7.52;100.00
63903;BME280;50072;50.678;13.938;2023-02-19T05:17:04;99188.16;;;7.48;100.00
63903;BME280;50072;50.678;13.938;2023-02-19T05:19:34;99176.69;;;7.46;100.00
63903;BME280;50072;50.678;13.938;2023-02-19T05:22:04;99174.78;;;7.51;100.00
63903;BME280;50072;50.678;13.938;2023-02-19T05:24:56;99168.56;;;7.52;100.00
63903;BME280;50072;50.678;13.938;2023-02-19T05:27:29;99157.31;;;7.37;100.00
63903;BME280;50072;50.678;13.938;2023-02-19T05:30:05;99160.91;;;7.35;100.00
63903;BME280;50072;50.678;13.938;2023-02-19T05:32:34;99149.47;;;7.31;100.00
63903;BME280;50072;50.678;13.938;2023-02-19T05:35:03;99149.44;;;7.33;100.00
63903;BME280;50072;50.678;13.938;2023-02-19T05:37:34;99154.75;;;7.33;100.00
63903;BME280;50072;50.678;13.938;2023-02-19T05:40:10;99150.38;;;7.30;100.00
63903;BME280;50072;50.678;13.938;2023-02-19T05:45:59;99156.28;;;7.45;100.00
63903;BME280;50072;50.678;13.938;2023-02-19T05:48:26;99158.06;;;7.44;100.00
63903;BME280;50072;50.678;13.938;2023-02-19T05:51:01;99170.47;;;7.45;100.00
63903;BME280;50072;50.678;13.938;2023-02-19T05:53:34;99164.09;;;7.52;100.00
63903;BME280;50072;50.678;13.938;2023-02-19T05:56:35;99148.09;;;7.54;100.00
63903;BME280;50072;50.678;13.938;2023-02-19T05:59:28;99134.78;;;7.55;100.00
63903;BME280;50072;50.678;13.938;2023-02-19T06:02:04;99153.59;;;7.46;100.00
63903;BME280;50072;50.678;13.938;2023-02-19T06:04:34;99159.75;;;7.50;100.00
63903;BME280;50072;50.678;13.938;2023-02-19T06:07:10;99164.88;;;7.57;100.00
63903;BME280;50072;50.678;13.938;2023-02-19T06:09:56;99162.13;;;7.62;100.00
63903;BME280;50072;50.678;13.938;2023-02-19T06:12:34;99166.06;;;7.85;100.00
63903;BME280;50072;50.678;13.938;2023-02-19T06:15:04;99159.63;;;7.95;100.00
63903;BME280;50072;50.678;13.938;2023-02-19T06:17:34;99165.69;;;8.02;100.00
63903;BME280;50072;50.678;13.938;2023-02-19T06:20:04;99172.75;;;8.04;100.00
63903;BME280;50072;50.678;13.938;2023-02-19T06:22:34;99169.25;;;8.01;100.00
63903;BME280;50072;50.678;13.938;2023-02-19T06:25:04;99173.84;;;7.95;100.00
63903;BME280;50072;50.678;13.938;2023-02-19T06:27:35;99173.72;;;8.00;100.00
63903;BME280;50072;50.678;13.938;2023-02-19T06:30:04;99179.97;;;7.99;100.00
63903;BME280;50072;50.678;13.938;2023-02-19T06:32:31;99184.25;;;8.06;100.00
63903;BME280;50072;50.678;13.938;2023-02-19T06:34:57;99183.38;;;8.06;100.00
63903;BME280;50072;50.678;13.938;2023-02-19T06:37:24;99182.56;;;8.04;100.00
63903;BME280;50072;50.678;13.938;2023-02-19T06:39:51;99182.50;;;8.05;100.00
63903;BME280;50072;50.678;13.938;2023-02-19T06:42:19;99193.09;;;8.08;100.00
63903;BME280;50072;50.678;13.938;2023-02-19T06:44:45;99202.00;;;8.07;100.00
63903;BME280;50072;50.678;13.938;2023-02-19T06:47:11;99204.59;;;8.10;100.00
63903;BME280;50072;50.678;13.938;2023-02-19T06:49:40;99208.78;;;8.22;100.00
63903;BME280;50072;50.678;13.938;2023-02-19T06:52:08;99212.84;;;8.39;98.32
63903;BME280;50072;50.678;13.938;2023-02-19T06:54:33;99217.38;;;8.35;99.92
63903;BME280;50072;50.678;13.938;2023-02-19T06:56:59;99221.72;;;8.38;99.05
63903;BME280;50072;50.678;13.938;2023-02-19T06:59:26;99226.19;;;8.37;98.83
63903;BME280;50072;50.678;13.938;2023-02-19T07:01:52;99227.16;;;8.35;99.27
63903;BME280;50072;50.678;13.938;2023-02-19T07:04:19;99243.03;;;8.41;95.92
63903;BME280;50072;50.678;13.938;2023-02-19T07:06:47;99249.97;;;8.50;98.57
63903;BME280;50072;50.678;13.938;2023-02-19T07:09:13;99243.69;;;8.51;97.75
63903;BME280;50072;50.678;13.938;2023-02-19T07:11:41;99238.44;;;8.48;98.16
63903;BME280;50072;50.678;13.938;2023-02-19T07:14:13;99259.66;;;8.54;97.95
63903;BME280;50072;50.678;13.938;2023-02-19T07:16:40;99269.47;;;8.52;98.44
63903;BME280;50072;50.678;13.938;2023-02-19T07:19:06;99275.50;;;8.60;96.25
63903;BME280;50072;50.678;13.938;2023-02-19T07:21:32;99275.50;;;8.60;96.44
63903;BME280;50072;50.678;13.938;2023-02-19T07:24:03;99285.09;;;8.67;95.38
63903;BME280;50072;50.678;13.938;2023-02-19T07:26:29;99302.69;;;8.76;92.88
63903;BME280;50072;50.678;13.938;2023-02-19T07:28:57;99297.19;;;8.82;91.16
63903;BME280;50072;50.678;13.938;2023-02-19T07:31:23;99296.41;;;8.78;91.98
63903;BME280;50072;50.678;13.938;2023-02-19T07:33:49;99293.69;;;8.80;92.75
63903;BME280;50072;50.678;13.938;2023-02-19T07:36:18;99296.28;;;8.83;93.91
63903;BME280;50072;50.678;13.938;2023-02-19T07:38:44;99303.56;;;8.76;92.56
63903;BME280;50072;50.678;13.938;2023-02-19T07:41:10;99299.91;;;8.80;94.89
63903;BME280;50072;50.678;13.938;2023-02-19T07:43:37;99300.81;;;8.81;93.95
63903;BME280;50072;50.678;13.938;2023-02-19T07:46:07;99291.09;;;8.77;96.13
63903;BME280;50072;50.678;13.938;2023-02-19T07:48:39;99285.88;;;8.72;94.92
63903;BME280;50072;50.678;13.938;2023-02-19T07:51:13;99285.72;;;8.78;96.14
63903;BME280;50072;50.678;13.938;2023-02-19T07:53:43;99286.91;;;8.67;97.00
63903;BME280;50072;50.678;13.938;2023-02-19T07:56:10;99287.06;;;8.59;97.90
63903;BME280;50072;50.678;13.938;2023-02-19T07:58:38;99286.31;;;8.54;96.07
63903;BME280;50072;50.678;13.938;2023-02-19T08:01:12;99304.28;;;8.45;95.77
63903;BME280;50072;50.678;13.938;2023-02-19T08:03:38;99307.84;;;8.44;93.83
63903;BME280;50072;50.678;13.938;2023-02-19T08:06:05;99312.03;;;8.56;92.89
63903;BME280;50072;50.678;13.938;2023-02-19T08:08:32;99316.50;;;8.56;92.30
63903;BME280;50072;50.678;13.938;2023-02-19T08:11:00;99324.41;;;8.59;92.47
63903;BME280;50072;50.678;13.938;2023-02-19T08:13:48;99323.69;;;8.51;92.65
63903;BME280;50072;50.678;13.938;2023-02-19T08:16:16;99328.50;;;8.33;92.95
63903;BME280;50072;50.678;13.938;2023-02-19T08:18:48;99324.16;;;8.29;92.50
63903;BME280;50072;50.678;13.938;2023-02-19T08:21:14;99330.59;;;8.19;92.33
63903;BME280;50072;50.678;13.938;2023-02-19T08:23:42;99344.97;;;8.10;93.21
63903;BME280;50072;50.678;13.938;2023-02-19T08:26:09;99340.75;;;8.00;93.66
63903;BME280;50072;50.678;13.938;2023-02-19T08:28:36;99345.31;;;7.93;93.98
63903;BME280;50072;50.678;13.938;2023-02-19T08:31:05;99369.44;;;7.87;98.25
63903;BME280;50072;50.678;13.938;2023-02-19T08:33:33;99379.44;;;7.74;100.00
63903;BME280;50072;50.678;13.938;2023-02-19T08:36:06;99386.78;;;7.58;100.00
63903;BME280;50072;50.678;13.938;2023-02-19T08:38:33;99384.31;;;7.49;100.00
63903;BME280;50072;50.678;13.938;2023-02-19T08:41:09;99394.03;;;7.51;100.00
63903;BME280;50072;50.678;13.938;2023-02-19T08:43:35;99401.09;;;7.52;100.00
63903;BME280;50072;50.678;13.938;2023-02-19T08:46:02;99415.28;;;7.54;100.00
63903;BME280;50072;50.678;13.938;2023-02-19T08:48:28;99417.84;;;7.59;100.00
63903;BME280;50072;50.678;13.938;2023-02-19T08:50:58;99410.00;;;7.51;100.00
63903;BME280;50072;50.678;13.938;2023-02-19T08:53:24;99432.13;;;7.55;100.00
63903;BME280;50072;50.678;13.938;2023-02-19T08:55:52;99424.25;;;7.49;100.00
63903;BME280;50072;50.678;13.938;2023-02-19T08:58:18;99430.41;;;7.51;100.00
63903;BME280;50072;50.678;13.938;2023-02-19T09:00:47;99436.66;;;7.50;100.00
63903;BME280;50072;50.678;13.938;2023-02-19T09:03:13;99431.28;;;7.53;100.00
63903;BME280;50072;50.678;13.938;2023-02-19T09:05:40;99434.69;;;7.59;100.00
63903;BME280;50072;50.678;13.938;2023-02-19T09:08:05;99438.25;;;7.60;100.00
63903;BME280;50072;50.678;13.938;2023-02-19T09:10:32;99444.50;;;7.59;100.00
63903;BME280;50072;50.678;13.938;2023-02-19T09:12:59;99448.84;;;7.65;100.00
63903;BME280;50072;50.678;13.938;2023-02-19T09:15:28;99462.00;;;7.72;100.00
63903;BME280;50072;50.678;13.938;2023-02-19T09:17:54;99463.88;;;7.67;100.00
63903;BME280;50072;50.678;13.938;2023-02-19T09:20:20;99463.03;;;7.65;100.00
63903;BME280;50072;50.678;13.938;2023-02-19T09:22:48;99478.88;;;7.73;100.00
63903;BME280;50072;50.678;13.938;2023-02-19T09:25:16;99497.50;;;7.74;100.00
63903;BME280;50072;50.678;13.938;2023-02-19T09:27:43;99518.03;;;7.68;100.00
63903;BME280;50072;50.678;13.938;2023-02-19T09:30:15;99526.09;;;7.63;100.00
63903;BME280;50072;50.678;13.938;2023-02-19T09:32:41;99525.25;;;7.59;100.00
63903;BME280;50072;50.678;13.938;2023-02-19T09:35:10;99524.50;;;7.53;97.79
63903;BME280;50072;50.678;13.938;2023-02-19T09:37:36;99532.56;;;7.48;98.98
63903;BME280;50072;50.678;13.938;2023-02-19T09:40:02;99549.31;;;7.53;100.00
63903;BME280;50072;50.678;13.938;2023-02-19T09:42:29;99557.50;;;7.39;95.29
63903;BME280;50072;50.678;13.938;2023-02-19T09:44:59;99559.44;;;7.28;96.52
63903;BME280;50072;50.678;13.938;2023-02-19T09:47:27;99562.94;;;7.32;97.16
63903;BME280;50072;50.678;13.938;2023-02-19T09:49:58;99570.91;;;7.33;96.23
63903;BME280;50072;50.678;13.938;2023-02-19T09:52:47;99584.34;;;7.24;92.84
63903;BME280;50072;50.678;13.938;2023-02-19T09:57:50;99587.03;;;7.21;91.77
63903;BME280;50072;50.678;13.938;2023-02-19T10:00:24;99604.84;;;7.16;91.94
63903;BME280;50072;50.678;13.938;2023-02-19T10:02:53;99607.63;;;7.05;91.64
63903;BME280;50072;50.678;13.938;2023-02-19T10:05:22;99615.69;;;7.00;90.15
63903;BME280;50072;50.678;13.938;2023-02-19T10:07:51;99623.63;;;7.02;94.38
63903;BME280;50072;50.678;13.938;2023-02-19T10:10:26;99628.13;;;7.00;91.01
63903;BME280;50072;50.678;13.938;2023-02-19T10:12:55;99642.38;;;6.91;91.70
63903;BME280;50072;50.678;13.938;2023-02-19T10:15:31;99653.09;;;6.85;90.49
63903;BME280;50072;50.678;13.938;2023-02-19T10:17:59;99666.38;;;6.85;92.82
63903;BME280;50072;50.678;13.938;2023-02-19T10:20:26;99666.44;;;6.80;92.66
63903;BME280;50072;50.678;13.938;2023-02-19T10:25:24;99698.44;;;6.71;92.67
63903;BME280;50072;50.678;13.938;2023-02-19T10:27:50;99709.09;;;6.69;91.79
63903;BME280;50072;50.678;13.938;2023-02-19T10:30:28;99712.63;;;6.71;89.00
63903;BME280;50072;50.678;13.938;2023-02-19T10:33:15;99718.94;;;6.58;91.53
63903;BME280;50072;50.678;13.938;2023-02-19T10:35:57;99726.91;;;6.58;92.37
63903;BME280;50072;50.678;13.938;2023-02-19T10:43:28;99735.03;;;6.36;94.06
63903;BME280;50072;50.678;13.938;2023-02-19T10:46:05;99735.13;;;6.24;90.05
63903;BME280;50072;50.678;13.938;2023-02-19T10:48:44;99757.41;;;6.03;91.72
63903;BME280;50072;50.678;13.938;2023-02-19T10:51:11;99763.63;;;5.99;90.92
63903;BME280;50072;50.678;13.938;2023-02-19T10:53:48;99770.63;;;6.12;88.18
63903;BME280;50072;50.678;13.938;2023-02-19T10:56:28;99777.63;;;6.24;88.19
63903;BME280;50072;50.678;13.938;2023-02-19T10:59:24;99780.22;;;6.38;89.18
63903;BME280;50072;50.678;13.938;2023-02-19T11:01:59;99771.31;;;6.45;88.67
63903;BME280;50072;50.678;13.938;2023-02-19T11:04:31;99778.41;;;6.48;87.57
63903;BME280;50072;50.678;13.938;2023-02-19T11:07:16;99784.53;;;6.59;85.97
63903;BME280;50072;50.678;13.938;2023-02-19T11:09:48;99789.81;;;6.64;87.56
63903;BME280;50072;50.678;13.938;2023-02-19T11:12:51;99784.47;;;6.64;87.71
63903;BME280;50072;50.678;13.938;2023-02-19T11:15:52;99794.25;;;6.65;82.69
63903;BME280;50072;50.678;13.938;2023-02-19T11:20:27;99805.91;;;6.41;80.85
63903;BME280;50072;50.678;13.938;2023-02-19T11:23:55;99800.47;;;6.59;83.98
63903;BME280;50072;50.678;13.938;2023-02-19T11:25:59;99813.59;;;6.88;84.58
63903;BME280;50072;50.678;13.938;2023-02-19T11:28:29;99803.63;;;7.11;79.02
63903;BME280;50072;50.678;13.938;2023-02-19T11:33:26;99814.38;;;6.98;84.08
63903;BME280;50072;50.678;13.938;2023-02-19T11:35:59;99821.41;;;7.04;79.43
63903;BME280;50072;50.678;13.938;2023-02-19T11:38:49;99830.50;;;6.75;76.58
63903;BME280;50072;50.678;13.938;2023-02-19T12:11:27;99869.75;;;6.34;82.71
63903;BME280;50072;50.678;13.938;2023-02-19T12:14:07;99871.53;;;6.28;75.52
63903;BME280;50072;50.678;13.938;2023-02-19T12:16:53;99876.00;;;6.21;77.41
63903;BME280;50072;50.678;13.938;2023-02-19T12:45:33;99910.47;;;6.39;76.96
63903;BME280;50072;50.678;13.938;2023-02-19T12:50:33;99903.38;;;6.37;76.27
63903;BME280;50072;50.678;13.938;2023-02-19T12:53:22;99896.28;;;6.45;76.72
63903;BME280;50072;50.678;13.938;2023-02-19T12:55:49;99900.66;;;6.54;72.63
63903;BME280;50072;50.678;13.938;2023-02-19T12:58:21;99899.69;;;6.73;75.53
63903;BME280;50072;50.678;13.938;2023-02-19T13:00:49;99895.19;;;6.82;77.94
63903;BME280;50072;50.678;13.938;2023-02-19T13:03:37;99901.25;;;7.08;74.25
63903;BME280;50072;50.678;13.938;2023-02-19T13:11:31;99900.13;;;7.37;71.09
63903;BME280;50072;50.678;13.938;2023-02-19T13:16:46;99903.41;;;7.67;67.00
63903;BME280;50072;50.678;13.938;2023-02-19T13:19:14;99903.16;;;7.92;69.05
63903;BME280;50072;50.678;13.938;2023-02-19T13:21:40;99907.75;;;7.76;66.18
63903;BME280;50072;50.678;13.938;2023-02-19T13:24:34;99927.72;;;7.22;66.81
63903;BME280;50072;50.678;13.938;2023-02-19T13:29:50;99931.44;;;7.04;72.21
63903;BME280;50072;50.678;13.938;2023-02-19T13:35:23;99923.16;;;7.43;66.28
63903;BME280;50072;50.678;13.938;2023-02-19T13:45:58;99931.38;;;7.11;65.38
63903;BME280;50072;50.678;13.938;2023-02-19T13:48:34;99942.97;;;7.02;63.66
63903;BME280;50072;50.678;13.938;2023-02-19T13:53:58;99946.56;;;8.03;63.71
63903;BME280;50072;50.678;13.938;2023-02-19T14:14:35;99962.59;;;6.81;65.12
63903;BME280;50072;50.678;13.938;2023-02-19T14:30:25;99968.47;;;9.09;57.37
63903;BME280;50072;50.678;13.938;2023-02-19T14:35:44;99984.47;;;10.67;52.44
63903;BME280;50072;50.678;13.938;2023-02-19T14:38:14;99972.63;;;9.27;53.99
63903;BME280;50072;50.678;13.938;2023-02-19T14:40:54;99978.06;;;8.53;55.49
63903;BME280;50072;50.678;13.938;2023-02-19T14:43:27;99978.91;;;7.63;58.15
63903;BME280;50072;50.678;13.938;2023-02-19T14:46:55;99988.00;;;7.37;61.12
63903;BME280;50072;50.678;13.938;2023-02-19T14:49:02;99988.38;;;8.00;58.12
63903;BME280;50072;50.678;13.938;2023-02-19T14:51:36;99995.00;;;7.48;59.45
63903;BME280;50072;50.678;13.938;2023-02-19T14:54:32;99987.22;;;7.17;60.40
63903;BME280;50072;50.678;13.938;2023-02-19T14:56:57;99991.81;;;6.90;61.54
63903;BME280;50072;50.678;13.938;2023-02-19T14:59:27;100003.81;;;7.57;59.92
63903;BME280;50072;50.678;13.938;2023-02-19T15:02:02;100010.34;;;7.08;62.85
63903;BME280;50072;50.678;13.938;2023-02-19T15:04:29;100018.41;;;6.96;62.15
63903;BME280;50072;50.678;13.938;2023-02-19T15:09:30;100030.84;;;6.85;62.25
63903;BME280;50072;50.678;13.938;2023-02-19T15:11:59;100036.22;;;6.79;63.01
63903;BME280;50072;50.678;13.938;2023-02-19T15:14:27;100046.81;;;6.85;64.48
63903;BME280;50072;50.678;13.938;2023-02-19T15:17:04;100033.56;;;6.79;63.21
63903;BME280;50072;50.678;13.938;2023-02-19T15:19:33;100041.53;;;6.72;65.13
63903;BME280;50072;50.678;13.938;2023-02-19T15:22:02;100044.19;;;6.74;64.55
63903;BME280;50072;50.678;13.938;2023-02-19T15:24:34;100046.84;;;6.79;64.52
63903;BME280;50072;50.678;13.938;2023-02-19T15:27:03;100042.38;;;6.85;64.22
63903;BME280;50072;50.678;13.938;2023-02-19T15:29:31;100055.69;;;6.81;62.56
63903;BME280;50072;50.678;13.938;2023-02-19T15:31:58;100057.53;;;6.62;63.24
63903;BME280;50072;50.678;13.938;2023-02-19T15:34:34;100049.59;;;6.57;62.21
63903;BME280;50072;50.678;13.938;2023-02-19T15:37:06;100052.28;;;6.42;65.35
63903;BME280;50072;50.678;13.938;2023-02-19T15:42:13;100053.19;;;6.33;65.36
63903;BME280;50072;50.678;13.938;2023-02-19T15:47:55;100066.47;;;6.19;64.90
63903;BME280;50072;50.678;13.938;2023-02-19T15:55:56;100070.88;;;5.84;65.84
63903;BME280;50072;50.678;13.938;2023-02-19T16:01:02;100084.09;;;5.52;66.85
63903;BME280;50072;50.678;13.938;2023-02-19T16:03:29;100093.81;;;5.47;67.20
63903;BME280;50072;50.678;13.938;2023-02-19T16:06:03;100096.47;;;5.41;67.54
63903;BME280;50072;50.678;13.938;2023-02-19T16:08:33;100107.97;;;5.40;68.88
63903;BME280;50072;50.678;13.938;2023-02-19T16:11:00;100108.81;;;5.32;68.29
63903;BME280;50072;50.678;13.938;2023-02-19T16:13:27;100103.44;;;5.11;68.17
63903;BME280;50072;50.678;13.938;2023-02-19T16:16:05;100103.38;;;5.01;68.95
63903;BME280;50072;50.678;13.938;2023-02-19T16:18:37;100112.25;;;5.04;71.71
63903;BME280;50072;50.678;13.938;2023-02-19T16:21:06;100115.75;;;4.92;68.85
63903;BME280;50072;50.678;13.938;2023-02-19T16:23:33;100109.53;;;4.90;68.94
63903;BME280;50072;50.678;13.938;2023-02-19T16:25:59;100106.88;;;4.88;70.02
63903;BME280;50072;50.678;13.938;2023-02-19T16:28:30;100117.44;;;4.79;70.97
63903;BME280;50072;50.678;13.938;2023-02-19T16:31:05;100111.25;;;4.81;69.41
63903;BME280;50072;50.678;13.938;2023-02-19T16:36:20;100117.34;;;4.62;71.42
63903;BME280;50072;50.678;13.938;2023-02-19T16:41:29;100122.53;;;4.48;70.74